sensor_id;sensor_type;location;lat;lon;timestamp;P1;durP1;ratioP1;P2;durP2;ratioP2
54845;SDS011;53889;50.084;8.646;2023-08-20T00:01:36;7.47;;;4.90;;
54845;SDS011;53889;50.084;8.646;2023-08-20T00:04:03;9.15;;;5.00;;
54845;SDS011;53889;50.084;8.646;2023-08-20T00:06:31;6.80;;;4.70;;
54845;SDS011;53889;50.084;8.646;2023-08-20T00:08:59;7.35;;;4.68;;
54845;SDS011;53889;50.084;8.646;2023-08-20T00:11:28;6.97;;;4.20;;
54845;SDS011;53889;50.084;8.646;2023-08-20T00:13:56;8.38;;;4.68;;
54845;SDS011;53889;50.084;8.646;2023-08-20T00:16:22;8.20;;;5.22;;
54845;SDS011;53889;50.084;8.646;2023-08-20T00:18:50;9.48;;;5.07;;
54845;SDS011;53889;50.084;8.646;2023-08-20T00:21:17;7.57;;;4.82;;
54845;SDS011;53889;50.084;8.646;2023-08-20T00:23:44;6.25;;;4.47;;
54845;SDS011;53889;50.084;8.646;2023-08-20T00:26:12;7.75;;;4.75;;
54845;SDS011;53889;50.084;8.646;2023-08-20T00:28:40;8.70;;;5.18;;
54845;SDS011;53889;50.084;8.646;2023-08-20T00:31:06;7.38;;;4.55;;
54845;SDS011;53889;50.084;8.646;2023-08-20T00:33:34;8.43;;;5.00;;
54845;SDS011;53889;50.084;8.646;2023-08-20T00:36:01;8.07;;;4.75;;
54845;SDS011;53889;50.084;8.646;2023-08-20T00:38:28;7.93;;;4.70;;
54845;SDS011;53889;50.084;8.646;2023-08-20T00:40:55;7.20;;;4.50;;
54845;SDS011;53889;50.084;8.646;2023-08-20T00:43:23;10.38;;;5.18;;
54845;SDS011;53889;50.084;8.646;2023-08-20T00:45:50;7.50;;;5.18;;
54845;SDS011;53889;50.084;8.646;2023-08-20T00:48:17;9.60;;;4.85;;
54845;SDS011;53889;50.084;8.646;2023-08-20T00:50:44;10.95;;;4.93;;
54845;SDS011;53889;50.084;8.646;2023-08-20T00:53:11;7.13;;;4.45;;
54845;SDS011;53889;50.084;8.646;2023-08-20T00:55:41;6.35;;;4.82;;
54845;SDS011;53889;50.084;8.646;2023-08-20T00:58:08;8.10;;;4.53;;
54845;SDS011;53889;50.084;8.646;2023-08-20T01:00:37;9.35;;;5.20;;
54845;SDS011;53889;50.084;8.646;2023-08-20T01:03:04;10.45;;;5.15;;
54845;SDS011;53889;50.084;8.646;2023-08-20T01:05:32;8.85;;;4.93;;
54845;SDS011;53889;50.084;8.646;2023-08-20T01:08:06;7.72;;;5.30;;
54845;SDS011;53889;50.084;8.646;2023-08-20T01:10:46;8.88;;;4.70;;
54845;SDS011;53889;50.084;8.646;2023-08-20T01:13:19;9.65;;;5.68;;
54845;SDS011;53889;50.084;8.646;2023-08-20T01:15:47;9.68;;;5.30;;
54845;SDS011;53889;50.084;8.646;2023-08-20T01:18:14;6.82;;;5.00;;
54845;SDS011;53889;50.084;8.646;2023-08-20T01:20:41;7.78;;;4.75;;
54845;SDS011;53889;50.084;8.646;2023-08-20T01:23:25;9.60;;;4.82;;
54845;SDS011;53889;50.084;8.646;2023-08-20T01:26:13;7.72;;;4.85;;
54845;SDS011;53889;50.084;8.646;2023-08-20T01:28:49;9.88;;;4.70;;
54845;SDS011;53889;50.084;8.646;2023-08-20T01:31:16;9.15;;;5.47;;
54845;SDS011;53889;50.084;8.646;2023-08-20T01:33:44;8.00;;;4.82;;
54845;SDS011;53889;50.084;8.646;2023-08-20T01:36:11;8.65;;;5.10;;
54845;SDS011;53889;50.084;8.646;2023-08-20T01:38:39;9.82;;;4.90;;
54845;SDS011;53889;50.084;8.646;2023-08-20T01:41:06;9.15;;;5.25;;
54845;SDS011;53889;50.084;8.646;2023-08-20T01:43:33;11.07;;;5.28;;
54845;SDS011;53889;50.084;8.646;2023-08-20T01:46:01;8.38;;;4.82;;
54845;SDS011;53889;50.084;8.646;2023-08-20T01:48:27;11.93;;;5.30;;
54845;SDS011;53889;50.084;8.646;2023-08-20T01:50:54;7.75;;;4.93;;
54845;SDS011;53889;50.084;8.646;2023-08-20T01:53:21;8.52;;;5.35;;
54845;SDS011;53889;50.084;8.646;2023-08-20T01:55:48;8.98;;;5.18;;
54845;SDS011;53889;50.084;8.646;2023-08-20T01:58:14;8.07;;;5.25;;
54845;SDS011;53889;50.084;8.646;2023-08-20T02:00:41;7.43;;;5.15;;
54845;SDS011;53889;50.084;8.646;2023-08-20T02:03:09;7.63;;;5.22;;
54845;SDS011;53889;50.084;8.646;2023-08-20T02:05:36;8.52;;;5.22;;
54845;SDS011;53889;50.084;8.646;2023-08-20T02:08:04;8.35;;;5.28;;
54845;SDS011;53889;50.084;8.646;2023-08-20T02:10:31;7.03;;;4.93;;
54845;SDS011;53889;50.084;8.646;2023-08-20T02:12:58;9.30;;;5.30;;
54845;SDS011;53889;50.084;8.646;2023-08-20T02:15:25;8.75;;;5.20;;
54845;SDS011;53889;50.084;8.646;2023-08-20T02:17:51;8.70;;;5.18;;
54845;SDS011;53889;50.084;8.646;2023-08-20T02:20:19;9.45;;;5.70;;
54845;SDS011;53889;50.084;8.646;2023-08-20T02:22:46;9.40;;;5.05;;
54845;SDS011;53889;50.084;8.646;2023-08-20T02:25:14;10.23;;;6.22;;
54845;SDS011;53889;50.084;8.646;2023-08-20T02:27:41;8.93;;;5.47;;
54845;SDS011;53889;50.084;8.646;2023-08-20T02:30:11;9.80;;;5.78;;
54845;SDS011;53889;50.084;8.646;2023-08-20T02:32:38;6.68;;;5.18;;
54845;SDS011;53889;50.084;8.646;2023-08-20T02:35:05;8.50;;;5.03;;
54845;SDS011;53889;50.084;8.646;2023-08-20T02:37:33;8.57;;;5.60;;
54845;SDS011;53889;50.084;8.646;2023-08-20T02:40:01;8.80;;;5.40;;
54845;SDS011;53889;50.084;8.646;2023-08-20T02:42:29;8.55;;;5.18;;
54845;SDS011;53889;50.084;8.646;2023-08-20T02:44:56;8.57;;;5.28;;
54845;SDS011;53889;50.084;8.646;2023-08-20T02:47:24;11.52;;;4.90;;
54845;SDS011;53889;50.084;8.646;2023-08-20T02:49:51;8.27;;;5.13;;
54845;SDS011;53889;50.084;8.646;2023-08-20T02:52:18;8.88;;;5.15;;
54845;SDS011;53889;50.084;8.646;2023-08-20T02:54:46;8.52;;;5.15;;
54845;SDS011;53889;50.084;8.646;2023-08-20T02:57:12;7.18;;;5.05;;
54845;SDS011;53889;50.084;8.646;2023-08-20T02:59:39;9.15;;;5.00;;
54845;SDS011;53889;50.084;8.646;2023-08-20T03:02:06;9.32;;;5.35;;
54845;SDS011;53889;50.084;8.646;2023-08-20T03:04:32;6.93;;;4.75;;
54845;SDS011;53889;50.084;8.646;2023-08-20T03:07:00;11.63;;;4.97;;
54845;SDS011;53889;50.084;8.646;2023-08-20T03:09:26;9.85;;;5.15;;
54845;SDS011;53889;50.084;8.646;2023-08-20T03:11:54;9.63;;;5.38;;
54845;SDS011;53889;50.084;8.646;2023-08-20T03:14:21;10.50;;;5.22;;
54845;SDS011;53889;50.084;8.646;2023-08-20T03:16:48;9.57;;;5.50;;
54845;SDS011;53889;50.084;8.646;2023-08-20T03:19:15;10.07;;;5.22;;
54845;SDS011;53889;50.084;8.646;2023-08-20T03:21:42;9.45;;;5.28;;
54845;SDS011;53889;50.084;8.646;2023-08-20T03:24:08;9.07;;;5.22;;
54845;SDS011;53889;50.084;8.646;2023-08-20T03:26:35;13.60;;;5.85;;
54845;SDS011;53889;50.084;8.646;2023-08-20T03:29:03;7.25;;;5.22;;
54845;SDS011;53889;50.084;8.646;2023-08-20T03:31:31;10.60;;;5.70;;
54845;SDS011;53889;50.084;8.646;2023-08-20T03:33:57;10.10;;;5.85;;
54845;SDS011;53889;50.084;8.646;2023-08-20T03:36:24;9.07;;;5.28;;
54845;SDS011;53889;50.084;8.646;2023-08-20T03:38:51;8.93;;;5.63;;
54845;SDS011;53889;50.084;8.646;2023-08-20T03:41:17;10.45;;;5.80;;
54845;SDS011;53889;50.084;8.646;2023-08-20T03:43:44;9.93;;;5.20;;
54845;SDS011;53889;50.084;8.646;2023-08-20T03:46:13;7.05;;;5.57;;
54845;SDS011;53889;50.084;8.646;2023-08-20T03:48:41;9.55;;;5.70;;
54845;SDS011;53889;50.084;8.646;2023-08-20T03:51:08;9.20;;;5.55;;
54845;SDS011;53889;50.084;8.646;2023-08-20T03:53:35;9.15;;;5.68;;
54845;SDS011;53889;50.084;8.646;2023-08-20T03:56:01;8.48;;;5.55;;
54845;SDS011;53889;50.084;8.646;2023-08-20T03:58:28;9.50;;;5.85;;
54845;SDS011;53889;50.084;8.646;2023-08-20T04:00:55;7.65;;;5.50;;
54845;SDS011;53889;50.084;8.646;2023-08-20T04:03:23;9.27;;;5.50;;
54845;SDS011;53889;50.084;8.646;2023-08-20T04:05:50;8.40;;;5.60;;
54845;SDS011;53889;50.084;8.646;2023-08-20T04:08:16;11.30;;;6.03;;
54845;SDS011;53889;50.084;8.646;2023-08-20T04:10:44;9.93;;;5.80;;
54845;SDS011;53889;50.084;8.646;2023-08-20T04:13:11;8.23;;;5.55;;
54845;SDS011;53889;50.084;8.646;2023-08-20T04:15:39;13.55;;;6.20;;
54845;SDS011;53889;50.084;8.646;2023-08-20T04:18:06;8.88;;;6.35;;
54845;SDS011;53889;50.084;8.646;2023-08-20T04:20:34;9.30;;;6.75;;
54845;SDS011;53889;50.084;8.646;2023-08-20T04:23:02;9.55;;;6.70;;
54845;SDS011;53889;50.084;8.646;2023-08-20T04:25:29;9.70;;;6.22;;
54845;SDS011;53889;50.084;8.646;2023-08-20T04:27:55;10.10;;;6.25;;
54845;SDS011;53889;50.084;8.646;2023-08-20T04:30:22;9.15;;;6.20;;
54845;SDS011;53889;50.084;8.646;2023-08-20T04:32:49;10.13;;;6.20;;
54845;SDS011;53889;50.084;8.646;2023-08-20T04:35:16;8.25;;;5.80;;
54845;SDS011;53889;50.084;8.646;2023-08-20T04:37:44;11.10;;;5.90;;
54845;SDS011;53889;50.084;8.646;2023-08-20T04:40:11;8.82;;;5.70;;
54845;SDS011;53889;50.084;8.646;2023-08-20T04:42:38;9.43;;;5.70;;
54845;SDS011;53889;50.084;8.646;2023-08-20T04:45:06;8.57;;;6.05;;
54845;SDS011;53889;50.084;8.646;2023-08-20T04:47:34;9.65;;;6.00;;
54845;SDS011;53889;50.084;8.646;2023-08-20T04:50:01;7.80;;;5.38;;
54845;SDS011;53889;50.084;8.646;2023-08-20T04:52:31;10.05;;;5.55;;
54845;SDS011;53889;50.084;8.646;2023-08-20T04:54:59;8.65;;;5.30;;
54845;SDS011;53889;50.084;8.646;2023-08-20T04:57:26;9.50;;;5.60;;
54845;SDS011;53889;50.084;8.646;2023-08-20T04:59:55;9.48;;;5.60;;
54845;SDS011;53889;50.084;8.646;2023-08-20T05:02:30;8.77;;;5.40;;
54845;SDS011;53889;50.084;8.646;2023-08-20T05:05:01;9.13;;;5.35;;
54845;SDS011;53889;50.084;8.646;2023-08-20T05:07:27;9.73;;;5.35;;
54845;SDS011;53889;50.084;8.646;2023-08-20T05:09:54;7.80;;;5.35;;
54845;SDS011;53889;50.084;8.646;2023-08-20T05:12:23;8.85;;;5.13;;
54845;SDS011;53889;50.084;8.646;2023-08-20T05:14:49;7.68;;;5.10;;
54845;SDS011;53889;50.084;8.646;2023-08-20T05:17:16;9.13;;;5.22;;
54845;SDS011;53889;50.084;8.646;2023-08-20T05:19:43;6.82;;;4.70;;
54845;SDS011;53889;50.084;8.646;2023-08-20T05:22:09;7.82;;;5.25;;
54845;SDS011;53889;50.084;8.646;2023-08-20T05:24:38;9.27;;;4.70;;
54845;SDS011;53889;50.084;8.646;2023-08-20T05:27:05;9.20;;;5.22;;
54845;SDS011;53889;50.084;8.646;2023-08-20T05:29:34;7.80;;;4.90;;
54845;SDS011;53889;50.084;8.646;2023-08-20T05:32:02;8.15;;;5.05;;
54845;SDS011;53889;50.084;8.646;2023-08-20T05:34:29;8.98;;;5.68;;
54845;SDS011;53889;50.084;8.646;2023-08-20T05:36:56;7.50;;;5.25;;
54845;SDS011;53889;50.084;8.646;2023-08-20T05:39:23;11.30;;;5.43;;
54845;SDS011;53889;50.084;8.646;2023-08-20T05:41:51;7.18;;;5.30;;
54845;SDS011;53889;50.084;8.646;2023-08-20T05:44:18;9.15;;;5.90;;
54845;SDS011;53889;50.084;8.646;2023-08-20T05:46:46;8.30;;;5.80;;
54845;SDS011;53889;50.084;8.646;2023-08-20T05:49:13;7.45;;;5.30;;
54845;SDS011;53889;50.084;8.646;2023-08-20T05:51:42;8.73;;;5.40;;
54845;SDS011;53889;50.084;8.646;2023-08-20T05:54:09;7.13;;;4.78;;
54845;SDS011;53889;50.084;8.646;2023-08-20T05:56:36;7.85;;;5.43;;
54845;SDS011;53889;50.084;8.646;2023-08-20T05:59:03;7.47;;;5.38;;
54845;SDS011;53889;50.084;8.646;2023-08-20T06:01:31;7.50;;;5.68;;
54845;SDS011;53889;50.084;8.646;2023-08-20T06:03:59;6.85;;;5.85;;
54845;SDS011;53889;50.084;8.646;2023-08-20T06:06:26;9.95;;;5.30;;
54845;SDS011;53889;50.084;8.646;2023-08-20T06:08:53;7.72;;;5.72;;
54845;SDS011;53889;50.084;8.646;2023-08-20T06:11:20;6.10;;;5.28;;
54845;SDS011;53889;50.084;8.646;2023-08-20T06:13:47;7.85;;;5.40;;
54845;SDS011;53889;50.084;8.646;2023-08-20T06:16:13;9.05;;;5.35;;
54845;SDS011;53889;50.084;8.646;2023-08-20T06:18:40;9.52;;;5.38;;
54845;SDS011;53889;50.084;8.646;2023-08-20T06:21:08;6.95;;;4.90;;
54845;SDS011;53889;50.084;8.646;2023-08-20T06:23:34;8.52;;;5.68;;
54845;SDS011;53889;50.084;8.646;2023-08-20T06:26:01;6.25;;;4.68;;
54845;SDS011;53889;50.084;8.646;2023-08-20T06:28:28;7.50;;;5.13;;
54845;SDS011;53889;50.084;8.646;2023-08-20T06:30:56;7.28;;;4.70;;
54845;SDS011;53889;50.084;8.646;2023-08-20T06:33:22;9.65;;;5.13;;
54845;SDS011;53889;50.084;8.646;2023-08-20T06:35:49;6.10;;;4.40;;
54845;SDS011;53889;50.084;8.646;2023-08-20T06:38:17;6.53;;;4.70;;
54845;SDS011;53889;50.084;8.646;2023-08-20T06:40:44;7.25;;;4.47;;
54845;SDS011;53889;50.084;8.646;2023-08-20T06:43:10;6.13;;;4.10;;
54845;SDS011;53889;50.084;8.646;2023-08-20T06:45:37;6.28;;;3.92;;
54845;SDS011;53889;50.084;8.646;2023-08-20T06:48:04;5.68;;;3.92;;
54845;SDS011;53889;50.084;8.646;2023-08-20T06:50:31;6.82;;;4.20;;
54845;SDS011;53889;50.084;8.646;2023-08-20T06:52:58;5.97;;;3.70;;
54845;SDS011;53889;50.084;8.646;2023-08-20T06:55:26;5.47;;;4.00;;
54845;SDS011;53889;50.084;8.646;2023-08-20T06:57:52;4.93;;;3.60;;
54845;SDS011;53889;50.084;8.646;2023-08-20T07:00:19;6.20;;;3.90;;
54845;SDS011;53889;50.084;8.646;2023-08-20T07:02:46;6.28;;;3.72;;
54845;SDS011;53889;50.084;8.646;2023-08-20T07:05:13;5.15;;;3.78;;
54845;SDS011;53889;50.084;8.646;2023-08-20T07:07:40;5.53;;;4.13;;
54845;SDS011;53889;50.084;8.646;2023-08-20T07:10:07;6.35;;;4.00;;
54845;SDS011;53889;50.084;8.646;2023-08-20T07:12:35;5.60;;;3.72;;
54845;SDS011;53889;50.084;8.646;2023-08-20T07:15:02;6.60;;;4.07;;
54845;SDS011;53889;50.084;8.646;2023-08-20T07:17:29;4.72;;;3.80;;
54845;SDS011;53889;50.084;8.646;2023-08-20T07:19:55;5.88;;;3.72;;
54845;SDS011;53889;50.084;8.646;2023-08-20T07:22:22;5.18;;;3.60;;
54845;SDS011;53889;50.084;8.646;2023-08-20T07:24:49;5.50;;;3.58;;
54845;SDS011;53889;50.084;8.646;2023-08-20T07:27:16;4.63;;;3.50;;
54845;SDS011;53889;50.084;8.646;2023-08-20T07:29:44;6.43;;;3.97;;
54845;SDS011;53889;50.084;8.646;2023-08-20T07:32:10;6.13;;;3.80;;
54845;SDS011;53889;50.084;8.646;2023-08-20T07:34:37;7.43;;;3.60;;
54845;SDS011;53889;50.084;8.646;2023-08-20T07:37:04;6.72;;;3.65;;
54845;SDS011;53889;50.084;8.646;2023-08-20T07:39:31;5.72;;;3.83;;
54845;SDS011;53889;50.084;8.646;2023-08-20T07:41:58;5.47;;;3.90;;
54845;SDS011;53889;50.084;8.646;2023-08-20T07:44:25;5.50;;;3.60;;
54845;SDS011;53889;50.084;8.646;2023-08-20T07:46:54;5.78;;;3.90;;
54845;SDS011;53889;50.084;8.646;2023-08-20T07:49:21;6.07;;;3.95;;
54845;SDS011;53889;50.084;8.646;2023-08-20T07:51:48;5.97;;;4.07;;
54845;SDS011;53889;50.084;8.646;2023-08-20T07:54:17;5.78;;;4.03;;
54845;SDS011;53889;50.084;8.646;2023-08-20T07:56:44;5.43;;;4.15;;
54845;SDS011;53889;50.084;8.646;2023-08-20T07:59:10;5.93;;;3.80;;
54845;SDS011;53889;50.084;8.646;2023-08-20T08:01:37;5.78;;;4.20;;
54845;SDS011;53889;50.084;8.646;2023-08-20T08:04:05;6.03;;;3.80;;
54845;SDS011;53889;50.084;8.646;2023-08-20T08:06:32;6.03;;;4.13;;
54845;SDS011;53889;50.084;8.646;2023-08-20T08:11:40;5.70;;;4.53;;
54845;SDS011;53889;50.084;8.646;2023-08-20T08:14:07;6.10;;;4.78;;
54845;SDS011;53889;50.084;8.646;2023-08-20T08:16:34;7.55;;;4.70;;
54845;SDS011;53889;50.084;8.646;2023-08-20T08:19:00;5.95;;;4.50;;
54845;SDS011;53889;50.084;8.646;2023-08-20T08:21:28;8.48;;;4.72;;
54845;SDS011;53889;50.084;8.646;2023-08-20T08:23:55;5.93;;;4.55;;
54845;SDS011;53889;50.084;8.646;2023-08-20T08:26:22;8.07;;;4.40;;
54845;SDS011;53889;50.084;8.646;2023-08-20T08:28:48;6.47;;;4.57;;
54845;SDS011;53889;50.084;8.646;2023-08-20T08:31:15;6.03;;;4.90;;
54845;SDS011;53889;50.084;8.646;2023-08-20T08:33:42;7.45;;;4.78;;
54845;SDS011;53889;50.084;8.646;2023-08-20T08:36:08;6.30;;;4.97;;
54845;SDS011;53889;50.084;8.646;2023-08-20T08:38:37;6.70;;;4.50;;
54845;SDS011;53889;50.084;8.646;2023-08-20T08:41:04;7.72;;;4.63;;
54845;SDS011;53889;50.084;8.646;2023-08-20T08:43:36;6.78;;;4.60;;
54845;SDS011;53889;50.084;8.646;2023-08-20T08:46:04;5.88;;;4.40;;
54845;SDS011;53889;50.084;8.646;2023-08-20T08:48:33;6.32;;;4.43;;
54845;SDS011;53889;50.084;8.646;2023-08-20T08:51:01;6.18;;;4.53;;
54845;SDS011;53889;50.084;8.646;2023-08-20T08:53:28;7.10;;;4.25;;
54845;SDS011;53889;50.084;8.646;2023-08-20T08:55:58;6.90;;;4.40;;
54845;SDS011;53889;50.084;8.646;2023-08-20T08:58:24;5.60;;;4.15;;
54845;SDS011;53889;50.084;8.646;2023-08-20T09:00:51;6.55;;;4.32;;
54845;SDS011;53889;50.084;8.646;2023-08-20T09:03:18;7.65;;;5.07;;
54845;SDS011;53889;50.084;8.646;2023-08-20T09:05:46;5.90;;;4.85;;
54845;SDS011;53889;50.084;8.646;2023-08-20T09:08:18;6.82;;;4.57;;
54845;SDS011;53889;50.084;8.646;2023-08-20T09:10:45;5.45;;;4.82;;
54845;SDS011;53889;50.084;8.646;2023-08-20T09:13:13;6.45;;;4.70;;
54845;SDS011;53889;50.084;8.646;2023-08-20T09:15:40;7.13;;;4.80;;
54845;SDS011;53889;50.084;8.646;2023-08-20T09:18:09;5.45;;;4.28;;
54845;SDS011;53889;50.084;8.646;2023-08-20T09:20:36;8.00;;;4.82;;
54845;SDS011;53889;50.084;8.646;2023-08-20T09:23:03;7.35;;;5.10;;
54845;SDS011;53889;50.084;8.646;2023-08-20T09:25:30;6.47;;;4.88;;
54845;SDS011;53889;50.084;8.646;2023-08-20T09:27:56;6.63;;;5.18;;
54845;SDS011;53889;50.084;8.646;2023-08-20T09:30:24;7.20;;;5.05;;
54845;SDS011;53889;50.084;8.646;2023-08-20T09:33:04;7.43;;;5.15;;
54845;SDS011;53889;50.084;8.646;2023-08-20T09:35:32;7.38;;;5.47;;
54845;SDS011;53889;50.084;8.646;2023-08-20T09:37:59;6.95;;;5.22;;
54845;SDS011;53889;50.084;8.646;2023-08-20T09:40:26;7.45;;;5.30;;
54845;SDS011;53889;50.084;8.646;2023-08-20T09:42:53;6.70;;;4.90;;
54845;SDS011;53889;50.084;8.646;2023-08-20T09:45:20;6.88;;;4.57;;
54845;SDS011;53889;50.084;8.646;2023-08-20T09:47:49;5.97;;;5.13;;
54845;SDS011;53889;50.084;8.646;2023-08-20T09:50:20;6.05;;;4.20;;
54845;SDS011;53889;50.084;8.646;2023-08-20T09:52:49;5.85;;;4.05;;
54845;SDS011;53889;50.084;8.646;2023-08-20T09:55:21;5.93;;;4.22;;
54845;SDS011;53889;50.084;8.646;2023-08-20T09:57:54;5.38;;;4.03;;
54845;SDS011;53889;50.084;8.646;2023-08-20T10:00:22;5.45;;;4.35;;
54845;SDS011;53889;50.084;8.646;2023-08-20T10:02:50;6.85;;;4.30;;
54845;SDS011;53889;50.084;8.646;2023-08-20T10:05:18;4.97;;;3.97;;
54845;SDS011;53889;50.084;8.646;2023-08-20T10:07:46;5.43;;;4.07;;
54845;SDS011;53889;50.084;8.646;2023-08-20T10:10:13;4.90;;;4.20;;
54845;SDS011;53889;50.084;8.646;2023-08-20T10:12:42;5.78;;;4.35;;
54845;SDS011;53889;50.084;8.646;2023-08-20T10:15:10;5.10;;;4.13;;
54845;SDS011;53889;50.084;8.646;2023-08-20T10:17:39;5.32;;;4.43;;
54845;SDS011;53889;50.084;8.646;2023-08-20T10:20:09;4.93;;;3.97;;
54845;SDS011;53889;50.084;8.646;2023-08-20T10:22:39;6.93;;;4.10;;
54845;SDS011;53889;50.084;8.646;2023-08-20T10:25:07;5.78;;;4.10;;
54845;SDS011;53889;50.084;8.646;2023-08-20T10:27:34;6.18;;;4.57;;
54845;SDS011;53889;50.084;8.646;2023-08-20T10:30:03;5.57;;;4.13;;
54845;SDS011;53889;50.084;8.646;2023-08-20T10:32:49;5.35;;;4.13;;
54845;SDS011;53889;50.084;8.646;2023-08-20T10:35:18;5.90;;;4.25;;
54845;SDS011;53889;50.084;8.646;2023-08-20T10:38:02;5.72;;;4.50;;
54845;SDS011;53889;50.084;8.646;2023-08-20T10:40:49;6.07;;;4.70;;
54845;SDS011;53889;50.084;8.646;2023-08-20T10:43:29;6.13;;;4.72;;
54845;SDS011;53889;50.084;8.646;2023-08-20T10:46:03;6.10;;;4.65;;
54845;SDS011;53889;50.084;8.646;2023-08-20T10:48:31;5.60;;;4.97;;
54845;SDS011;53889;50.084;8.646;2023-08-20T10:51:03;7.20;;;4.82;;
54845;SDS011;53889;50.084;8.646;2023-08-20T10:53:33;6.65;;;4.78;;
54845;SDS011;53889;50.084;8.646;2023-08-20T10:56:06;6.13;;;4.47;;
54845;SDS011;53889;50.084;8.646;2023-08-20T10:58:34;5.47;;;4.05;;
54845;SDS011;53889;50.084;8.646;2023-08-20T11:01:14;5.53;;;3.50;;
54845;SDS011;53889;50.084;8.646;2023-08-20T11:03:45;4.13;;;3.15;;
54845;SDS011;53889;50.084;8.646;2023-08-20T11:06:16;5.05;;;3.40;;
54845;SDS011;53889;50.084;8.646;2023-08-20T11:08:43;4.50;;;3.38;;
54845;SDS011;53889;50.084;8.646;2023-08-20T11:11:10;5.22;;;3.90;;
54845;SDS011;53889;50.084;8.646;2023-08-20T11:13:38;4.68;;;3.85;;
54845;SDS011;53889;50.084;8.646;2023-08-20T11:16:05;4.82;;;3.80;;
54845;SDS011;53889;50.084;8.646;2023-08-20T11:18:33;5.57;;;4.10;;
54845;SDS011;53889;50.084;8.646;2023-08-20T11:21:00;9.32;;;3.80;;
54845;SDS011;53889;50.084;8.646;2023-08-20T11:23:29;5.35;;;4.00;;
54845;SDS011;53889;50.084;8.646;2023-08-20T11:25:56;4.80;;;3.67;;
54845;SDS011;53889;50.084;8.646;2023-08-20T11:28:24;5.18;;;3.60;;
54845;SDS011;53889;50.084;8.646;2023-08-20T11:30:52;6.00;;;3.70;;
54845;SDS011;53889;50.084;8.646;2023-08-20T11:33:20;6.60;;;3.85;;
54845;SDS011;53889;50.084;8.646;2023-08-20T11:35:48;4.50;;;3.70;;
54845;SDS011;53889;50.084;8.646;2023-08-20T11:38:14;6.95;;;4.00;;
54845;SDS011;53889;50.084;8.646;2023-08-20T11:40:43;5.63;;;3.70;;
54845;SDS011;53889;50.084;8.646;2023-08-20T11:43:09;5.65;;;3.58;;
54845;SDS011;53889;50.084;8.646;2023-08-20T11:45:43;5.60;;;3.83;;
54845;SDS011;53889;50.084;8.646;2023-08-20T11:50:37;4.38;;;3.80;;
54845;SDS011;53889;50.084;8.646;2023-08-20T11:53:05;5.43;;;4.03;;
54845;SDS011;53889;50.084;8.646;2023-08-20T11:55:33;4.63;;;3.60;;
54845;SDS011;53889;50.084;8.646;2023-08-20T11:58:01;5.35;;;3.35;;
54845;SDS011;53889;50.084;8.646;2023-08-20T12:00:29;4.68;;;3.10;;
54845;SDS011;53889;50.084;8.646;2023-08-20T12:02:57;5.47;;;3.35;;
54845;SDS011;53889;50.084;8.646;2023-08-20T12:05:26;5.10;;;3.13;;
54845;SDS011;53889;50.084;8.646;2023-08-20T12:07:54;4.95;;;3.17;;
54845;SDS011;53889;50.084;8.646;2023-08-20T12:10:22;3.95;;;3.28;;
54845;SDS011;53889;50.084;8.646;2023-08-20T12:12:49;3.30;;;2.72;;
54845;SDS011;53889;50.084;8.646;2023-08-20T12:15:18;4.50;;;2.80;;
54845;SDS011;53889;50.084;8.646;2023-08-20T12:17:54;4.20;;;2.70;;
54845;SDS011;53889;50.084;8.646;2023-08-20T12:20:26;4.03;;;2.83;;
54845;SDS011;53889;50.084;8.646;2023-08-20T12:22:54;4.97;;;3.00;;
54845;SDS011;53889;50.084;8.646;2023-08-20T12:25:20;4.70;;;2.88;;
54845;SDS011;53889;50.084;8.646;2023-08-20T12:27:46;4.78;;;3.10;;
54845;SDS011;53889;50.084;8.646;2023-08-20T12:30:13;3.63;;;2.72;;
54845;SDS011;53889;50.084;8.646;2023-08-20T12:32:41;4.10;;;3.03;;
54845;SDS011;53889;50.084;8.646;2023-08-20T12:35:08;4.78;;;2.95;;
54845;SDS011;53889;50.084;8.646;2023-08-20T12:37:35;3.70;;;3.00;;
54845;SDS011;53889;50.084;8.646;2023-08-20T12:40:02;5.43;;;2.88;;
54845;SDS011;53889;50.084;8.646;2023-08-20T12:42:32;4.80;;;2.45;;
54845;SDS011;53889;50.084;8.646;2023-08-20T12:44:59;4.10;;;2.75;;
54845;SDS011;53889;50.084;8.646;2023-08-20T12:47:26;3.55;;;2.60;;
54845;SDS011;53889;50.084;8.646;2023-08-20T12:49:54;4.95;;;2.72;;
54845;SDS011;53889;50.084;8.646;2023-08-20T12:52:21;3.17;;;2.30;;
54845;SDS011;53889;50.084;8.646;2023-08-20T12:54:47;4.60;;;2.88;;
54845;SDS011;53889;50.084;8.646;2023-08-20T12:57:14;3.85;;;2.70;;
54845;SDS011;53889;50.084;8.646;2023-08-20T12:59:41;3.90;;;2.67;;
54845;SDS011;53889;50.084;8.646;2023-08-20T13:02:08;4.70;;;3.10;;
54845;SDS011;53889;50.084;8.646;2023-08-20T13:04:35;5.22;;;3.20;;
54845;SDS011;53889;50.084;8.646;2023-08-20T13:07:03;5.43;;;2.85;;
54845;SDS011;53889;50.084;8.646;2023-08-20T13:09:31;5.97;;;3.20;;
54845;SDS011;53889;50.084;8.646;2023-08-20T13:11:58;3.53;;;2.90;;
54845;SDS011;53889;50.084;8.646;2023-08-20T13:14:29;5.03;;;2.75;;
54845;SDS011;53889;50.084;8.646;2023-08-20T13:16:56;4.53;;;2.83;;
54845;SDS011;53889;50.084;8.646;2023-08-20T13:19:23;4.95;;;2.70;;
54845;SDS011;53889;50.084;8.646;2023-08-20T13:21:50;5.18;;;2.92;;
54845;SDS011;53889;50.084;8.646;2023-08-20T13:24:18;4.80;;;2.90;;
54845;SDS011;53889;50.084;8.646;2023-08-20T13:26:44;4.50;;;2.92;;
54845;SDS011;53889;50.084;8.646;2023-08-20T13:29:11;7.05;;;3.08;;
54845;SDS011;53889;50.084;8.646;2023-08-20T13:31:38;4.47;;;2.67;;
54845;SDS011;53889;50.084;8.646;2023-08-20T13:34:05;5.20;;;3.03;;
54845;SDS011;53889;50.084;8.646;2023-08-20T13:36:32;4.90;;;2.83;;
54845;SDS011;53889;50.084;8.646;2023-08-20T13:38:58;4.88;;;2.85;;
54845;SDS011;53889;50.084;8.646;2023-08-20T13:41:26;4.45;;;2.80;;
54845;SDS011;53889;50.084;8.646;2023-08-20T13:43:53;4.85;;;3.03;;
54845;SDS011;53889;50.084;8.646;2023-08-20T13:46:20;4.88;;;2.80;;
54845;SDS011;53889;50.084;8.646;2023-08-20T13:48:47;6.03;;;3.30;;
54845;SDS011;53889;50.084;8.646;2023-08-20T13:51:13;4.63;;;3.15;;
54845;SDS011;53889;50.084;8.646;2023-08-20T13:53:40;5.78;;;3.10;;
54845;SDS011;53889;50.084;8.646;2023-08-20T13:56:07;4.07;;;2.90;;
54845;SDS011;53889;50.084;8.646;2023-08-20T13:58:35;4.53;;;2.63;;
54845;SDS011;53889;50.084;8.646;2023-08-20T14:01:01;4.10;;;2.80;;
54845;SDS011;53889;50.084;8.646;2023-08-20T14:03:28;5.32;;;3.10;;
54845;SDS011;53889;50.084;8.646;2023-08-20T14:05:55;4.07;;;2.58;;
54845;SDS011;53889;50.084;8.646;2023-08-20T14:08:22;5.25;;;2.40;;
54845;SDS011;53889;50.084;8.646;2023-08-20T14:10:48;4.78;;;2.58;;
54845;SDS011;53889;50.084;8.646;2023-08-20T14:13:15;5.38;;;2.88;;
54845;SDS011;53889;50.084;8.646;2023-08-20T14:15:43;6.43;;;3.05;;
54845;SDS011;53889;50.084;8.646;2023-08-20T14:18:10;5.55;;;2.90;;
54845;SDS011;53889;50.084;8.646;2023-08-20T14:20:36;4.97;;;2.80;;
54845;SDS011;53889;50.084;8.646;2023-08-20T14:23:03;6.28;;;3.05;;
54845;SDS011;53889;50.084;8.646;2023-08-20T14:25:30;8.30;;;7.20;;
54845;SDS011;53889;50.084;8.646;2023-08-20T14:27:57;5.50;;;3.15;;
54845;SDS011;53889;50.084;8.646;2023-08-20T14:30:23;3.90;;;2.90;;
54845;SDS011;53889;50.084;8.646;2023-08-20T14:32:52;3.72;;;2.90;;
54845;SDS011;53889;50.084;8.646;2023-08-20T14:35:19;4.70;;;3.15;;
54845;SDS011;53889;50.084;8.646;2023-08-20T14:37:46;5.00;;;3.00;;
54845;SDS011;53889;50.084;8.646;2023-08-20T14:40:13;6.40;;;3.50;;
54845;SDS011;53889;50.084;8.646;2023-08-20T14:42:41;5.68;;;3.22;;
54845;SDS011;53889;50.084;8.646;2023-08-20T14:45:08;8.35;;;3.50;;
54845;SDS011;53889;50.084;8.646;2023-08-20T14:47:35;5.38;;;3.90;;
54845;SDS011;53889;50.084;8.646;2023-08-20T14:50:03;6.15;;;3.30;;
54845;SDS011;53889;50.084;8.646;2023-08-20T14:52:30;5.50;;;3.38;;
54845;SDS011;53889;50.084;8.646;2023-08-20T14:54:57;5.45;;;3.40;;
54845;SDS011;53889;50.084;8.646;2023-08-20T14:57:24;6.55;;;3.10;;